sensor_id;sensor_type;location;lat;lon;timestamp;pressure;altitude;pressure_sealevel;temperature;humidity
43814;BME280;29669;55.706;37.656;2022-07-29T00:00:47;99979.63;;;19.16;nan
43814;BME280;29669;55.706;37.656;2022-07-29T00:04:08;99962.31;;;19.02;nan
43814;BME280;29669;55.706;37.656;2022-07-29T00:07:30;99973.94;;;18.88;nan
43814;BME280;29669;55.706;37.656;2022-07-29T00:10:50;99961.28;;;18.71;nan
43814;BME280;29669;55.706;37.656;2022-07-29T00:14:13;99975.50;;;18.64;nan
43814;BME280;29669;55.706;37.656;2022-07-29T00:17:27;99977.53;;;18.55;nan
43814;BME280;29669;55.706;37.656;2022-07-29T00:20:51;99973.53;;;18.46;nan
43814;BME280;29669;55.706;37.656;2022-07-29T00:24:13;99968.28;;;18.33;nan
43814;BME280;29669;55.706;37.656;2022-07-29T00:27:36;99969.72;;;18.23;nan
43814;BME280;29669;55.706;37.656;2022-07-29T00:30:58;99969.97;;;18.15;nan
43814;BME280;29669;55.706;37.656;2022-07-29T00:34:22;99984.16;;;18.07;nan
43814;BME280;29669;55.706;37.656;2022-07-29T00:38:01;99976.88;;;17.96;nan
43814;BME280;29669;55.706;37.656;2022-07-29T00:41:22;99985.38;;;17.85;nan
43814;BME280;29669;55.706;37.656;2022-07-29T00:44:48;99980.13;;;17.72;nan
43814;BME280;29669;55.706;37.656;2022-07-29T00:48:09;99986.63;;;17.63;nan
43814;BME280;29669;55.706;37.656;2022-07-29T00:51:37;99986.59;;;17.56;nan
43814;BME280;29669;55.706;37.656;2022-07-29T00:54:58;99995.06;;;17.45;nan
43814;BME280;29669;55.706;37.656;2022-07-29T00:58:22;99998.88;;;17.36;nan
43814;BME280;29669;55.706;37.656;2022-07-29T01:01:43;100001.72;;;17.35;nan
43814;BME280;29669;55.706;37.656;2022-07-29T01:05:05;100005.13;;;17.29;nan
43814;BME280;29669;55.706;37.656;2022-07-29T01:08:26;100007.16;;;17.20;nan
43814;BME280;29669;55.706;37.656;2022-07-29T01:11:49;100006.72;;;17.17;nan
43814;BME280;29669;55.706;37.656;2022-07-29T01:15:13;100014.41;;;17.18;nan
43814;BME280;29669;55.706;37.656;2022-07-29T01:18:41;100013.56;;;17.11;nan
43814;BME280;29669;55.706;37.656;2022-07-29T01:30:07;100006.28;;;16.93;nan
43814;BME280;29669;55.706;37.656;2022-07-29T01:33:33;100007.06;;;16.87;nan
43814;BME280;29669;55.706;37.656;2022-07-29T01:37:21;100014.72;;;16.82;nan
43814;BME280;29669;55.706;37.656;2022-07-29T01:44:50;100012.50;;;16.79;nan
43814;BME280;29669;55.706;37.656;2022-07-29T01:48:43;100014.09;;;16.74;nan
43814;BME280;29669;55.706;37.656;2022-07-29T01:52:11;100018.72;;;16.72;nan
43814;BME280;29669;55.706;37.656;2022-07-29T01:55:44;100009.47;;;16.76;nan
43814;BME280;29669;55.706;37.656;2022-07-29T01:59:08;100013.88;;;16.75;nan
43814;BME280;29669;55.706;37.656;2022-07-29T02:02:32;100011.06;;;16.77;nan
43814;BME280;29669;55.706;37.656;2022-07-29T02:05:55;100005.66;;;16.78;nan
43814;BME280;29669;55.706;37.656;2022-07-29T02:09:19;100010.28;;;16.83;nan
43814;BME280;29669;55.706;37.656;2022-07-29T02:12:43;100013.13;;;16.88;nan
43814;BME280;29669;55.706;37.656;2022-07-29T02:16:08;100014.94;;;16.87;nan
43814;BME280;29669;55.706;37.656;2022-07-29T02:19:32;100026.63;;;16.85;nan
43814;BME280;29669;55.706;37.656;2022-07-29T02:22:55;100019.56;;;16.85;nan
43814;BME280;29669;55.706;37.656;2022-07-29T02:26:19;100027.25;;;16.87;nan
43814;BME280;29669;55.706;37.656;2022-07-29T02:29:42;100030.47;;;16.89;nan
43814;BME280;29669;55.706;37.656;2022-07-29T02:33:04;100027.66;;;16.90;nan
43814;BME280;29669;55.706;37.656;2022-07-29T02:36:27;100033.91;;;16.89;nan
43814;BME280;29669;55.706;37.656;2022-07-29T02:39:55;100040.38;;;16.93;nan
43814;BME280;29669;55.706;37.656;2022-07-29T02:43:18;100038.94;;;16.91;nan
43814;BME280;29669;55.706;37.656;2022-07-29T02:50:48;100034.91;;;16.88;nan
43814;BME280;29669;55.706;37.656;2022-07-29T02:54:18;100038.56;;;17.01;nan
43814;BME280;29669;55.706;37.656;2022-07-29T02:57:51;100034.97;;;17.08;nan
43814;BME280;29669;55.706;37.656;2022-07-29T03:01:19;100032.56;;;17.07;nan
43814;BME280;29669;55.706;37.656;2022-07-29T03:04:43;100023.28;;;17.11;nan
43814;BME280;29669;55.706;37.656;2022-07-29T03:08:06;100029.78;;;17.28;nan
43814;BME280;29669;55.706;37.656;2022-07-29T03:11:29;100035.22;;;17.33;nan
43814;BME280;29669;55.706;37.656;2022-07-29T03:14:57;100034.63;;;17.37;nan
43814;BME280;29669;55.706;37.656;2022-07-29T03:18:19;100039.25;;;17.42;nan
43814;BME280;29669;55.706;37.656;2022-07-29T03:21:40;100033.81;;;17.43;nan
43814;BME280;29669;55.706;37.656;2022-07-29T03:25:08;100030.19;;;17.44;nan
43814;BME280;29669;55.706;37.656;2022-07-29T03:28:23;100029.44;;;17.50;nan
43814;BME280;29669;55.706;37.656;2022-07-29T03:31:44;100034.66;;;17.57;nan
43814;BME280;29669;55.706;37.656;2022-07-29T03:35:06;100035.47;;;17.64;nan
43814;BME280;29669;55.706;37.656;2022-07-29T03:38:33;100033.06;;;17.69;nan
43814;BME280;29669;55.706;37.656;2022-07-29T03:41:56;100037.50;;;17.75;nan
43814;BME280;29669;55.706;37.656;2022-07-29T03:48:46;100037.50;;;17.88;nan
43814;BME280;29669;55.706;37.656;2022-07-29T03:52:07;100034.25;;;17.99;nan
43814;BME280;29669;55.706;37.656;2022-07-29T03:55:37;100030.41;;;18.08;nan
43814;BME280;29669;55.706;37.656;2022-07-29T03:59:01;100042.31;;;18.17;nan
43814;BME280;29669;55.706;37.656;2022-07-29T04:02:25;100048.56;;;18.23;nan
43814;BME280;29669;55.706;37.656;2022-07-29T04:05:58;100049.16;;;18.31;nan
43814;BME280;29669;55.706;37.656;2022-07-29T04:09:19;100045.28;;;18.40;nan
43814;BME280;29669;55.706;37.656;2022-07-29T04:12:42;100043.09;;;18.50;nan
43814;BME280;29669;55.706;37.656;2022-07-29T04:16:02;100048.34;;;18.50;nan
43814;BME280;29669;55.706;37.656;2022-07-29T04:19:23;100058.44;;;18.53;nan
43814;BME280;29669;55.706;37.656;2022-07-29T04:22:37;100045.06;;;18.61;nan
43814;BME280;29669;55.706;37.656;2022-07-29T04:25:58;100052.72;;;18.69;nan
43814;BME280;29669;55.706;37.656;2022-07-29T04:29:23;100054.69;;;18.81;nan
43814;BME280;29669;55.706;37.656;2022-07-29T04:32:43;100057.09;;;18.89;nan
43814;BME280;29669;55.706;37.656;2022-07-29T04:36:06;100057.06;;;18.95;nan
43814;BME280;29669;55.706;37.656;2022-07-29T04:39:34;100058.25;;;18.99;nan
43814;BME280;29669;55.706;37.656;2022-07-29T04:42:56;100068.53;;;19.07;nan
43814;BME280;29669;55.706;37.656;2022-07-29T04:46:17;100069.91;;;19.10;nan
43814;BME280;29669;55.706;37.656;2022-07-29T04:49:43;100056.16;;;19.08;nan
43814;BME280;29669;55.706;37.656;2022-07-29T04:53:07;100061.44;;;19.08;nan
43814;BME280;29669;55.706;37.656;2022-07-29T04:56:28;100061.84;;;19.11;nan
43814;BME280;29669;55.706;37.656;2022-07-29T04:59:49;100063.59;;;19.17;nan
43814;BME280;29669;55.706;37.656;2022-07-29T05:03:10;100059.75;;;19.20;nan
43814;BME280;29669;55.706;37.656;2022-07-29T05:06:31;100064.59;;;19.23;nan
43814;BME280;29669;55.706;37.656;2022-07-29T05:09:52;100066.59;;;19.27;nan
43814;BME280;29669;55.706;37.656;2022-07-29T05:13:17;100058.28;;;19.30;nan
43814;BME280;29669;55.706;37.656;2022-07-29T05:16:51;100061.06;;;19.42;nan
43814;BME280;29669;55.706;37.656;2022-07-29T05:20:07;100066.66;;;19.52;nan
43814;BME280;29669;55.706;37.656;2022-07-29T05:23:27;100078.94;;;19.64;nan
43814;BME280;29669;55.706;37.656;2022-07-29T05:26:50;100075.16;;;19.85;nan
43814;BME280;29669;55.706;37.656;2022-07-29T05:30:05;100072.78;;;19.77;nan
43814;BME280;29669;55.706;37.656;2022-07-29T05:33:26;100071.38;;;19.75;nan
43814;BME280;29669;55.706;37.656;2022-07-29T05:36:49;100064.75;;;19.90;nan
43814;BME280;29669;55.706;37.656;2022-07-29T05:40:10;100063.59;;;20.04;nan
43814;BME280;29669;55.706;37.656;2022-07-29T05:43:34;100059.53;;;20.08;nan
43814;BME280;29669;55.706;37.656;2022-07-29T05:46:55;100068.38;;;20.20;nan
43814;BME280;29669;55.706;37.656;2022-07-29T05:50:17;100059.88;;;20.36;nan
43814;BME280;29669;55.706;37.656;2022-07-29T05:53:38;100057.13;;;20.49;nan
43814;BME280;29669;55.706;37.656;2022-07-29T05:56:59;100064.22;;;20.49;nan
43814;BME280;29669;55.706;37.656;2022-07-29T06:00:20;100067.53;;;20.63;nan
43814;BME280;29669;55.706;37.656;2022-07-29T06:03:41;100062.69;;;20.78;nan
43814;BME280;29669;55.706;37.656;2022-07-29T06:07:02;100060.31;;;20.88;nan
43814;BME280;29669;55.706;37.656;2022-07-29T06:10:23;100058.19;;;20.96;nan
43814;BME280;29669;55.706;37.656;2022-07-29T06:13:46;100049.88;;;21.11;nan
43814;BME280;29669;55.706;37.656;2022-07-29T06:17:07;100054.53;;;21.27;nan
43814;BME280;29669;55.706;37.656;2022-07-29T06:20:29;100058.66;;;21.23;nan
43814;BME280;29669;55.706;37.656;2022-07-29T06:23:50;100058.19;;;21.26;nan
43814;BME280;29669;55.706;37.656;2022-07-29T06:27:13;100053.88;;;21.43;nan
43814;BME280;29669;55.706;37.656;2022-07-29T06:30:34;100054.81;;;21.48;nan
43814;BME280;29669;55.706;37.656;2022-07-29T06:33:55;100054.03;;;21.60;nan
43814;BME280;29669;55.706;37.656;2022-07-29T06:37:16;100050.97;;;21.63;nan
43814;BME280;29669;55.706;37.656;2022-07-29T06:40:44;100047.44;;;21.80;nan
43814;BME280;29669;55.706;37.656;2022-07-29T06:44:18;100045.38;;;21.82;nan
43814;BME280;29669;55.706;37.656;2022-07-29T06:47:38;100041.88;;;21.70;nan
43814;BME280;29669;55.706;37.656;2022-07-29T06:51:00;100032.56;;;21.56;nan
43814;BME280;29669;55.706;37.656;2022-07-29T06:54:21;100043.31;;;21.43;nan
43814;BME280;29669;55.706;37.656;2022-07-29T06:57:43;100052.91;;;21.56;nan
43814;BME280;29669;55.706;37.656;2022-07-29T07:01:06;100050.50;;;21.66;nan
43814;BME280;29669;55.706;37.656;2022-07-29T07:04:29;100061.66;;;21.79;nan
43814;BME280;29669;55.706;37.656;2022-07-29T07:07:50;100039.19;;;22.00;nan
43814;BME280;29669;55.706;37.656;2022-07-29T07:11:17;100046.44;;;22.04;nan
43814;BME280;29669;55.706;37.656;2022-07-29T07:14:39;100051.59;;;22.11;nan
43814;BME280;29669;55.706;37.656;2022-07-29T07:18:06;100069.06;;;22.23;nan
43814;BME280;29669;55.706;37.656;2022-07-29T07:21:29;100053.72;;;22.48;nan
43814;BME280;29669;55.706;37.656;2022-07-29T07:24:51;100057.19;;;22.61;nan
43814;BME280;29669;55.706;37.656;2022-07-29T07:28:15;100068.44;;;22.68;nan
43814;BME280;29669;55.706;37.656;2022-07-29T07:31:40;100063.09;;;22.91;nan
43814;BME280;29669;55.706;37.656;2022-07-29T07:35:08;100068.31;;;23.14;nan
43814;BME280;29669;55.706;37.656;2022-07-29T07:38:31;100057.41;;;23.27;nan
43814;BME280;29669;55.706;37.656;2022-07-29T07:41:52;100055.97;;;23.19;nan
43814;BME280;29669;55.706;37.656;2022-07-29T07:45:15;100062.88;;;23.09;nan
43814;BME280;29669;55.706;37.656;2022-07-29T07:48:40;100060.44;;;23.19;nan
43814;BME280;29669;55.706;37.656;2022-07-29T07:52:00;100061.88;;;23.38;nan
43814;BME280;29669;55.706;37.656;2022-07-29T07:55:21;100068.44;;;23.35;nan
43814;BME280;29669;55.706;37.656;2022-07-29T07:59:04;100065.34;;;23.55;nan
43814;BME280;29669;55.706;37.656;2022-07-29T08:02:25;100069.56;;;23.84;nan
43814;BME280;29669;55.706;37.656;2022-07-29T08:05:46;100069.63;;;23.89;nan
43814;BME280;29669;55.706;37.656;2022-07-29T08:09:07;100074.53;;;23.81;nan
43814;BME280;29669;55.706;37.656;2022-07-29T08:12:35;100078.06;;;23.86;nan
43814;BME280;29669;55.706;37.656;2022-07-29T08:15:57;100071.31;;;23.95;nan
43814;BME280;29669;55.706;37.656;2022-07-29T08:19:28;100075.34;;;24.14;nan
43814;BME280;29669;55.706;37.656;2022-07-29T08:22:51;100054.06;;;24.31;nan
43814;BME280;29669;55.706;37.656;2022-07-29T08:26:13;100074.34;;;24.59;nan
43814;BME280;29669;55.706;37.656;2022-07-29T08:29:36;100072.75;;;24.58;nan
43814;BME280;29669;55.706;37.656;2022-07-29T08:32:56;100052.91;;;24.44;nan
43814;BME280;29669;55.706;37.656;2022-07-29T08:36:17;100049.53;;;24.48;nan
43814;BME280;29669;55.706;37.656;2022-07-29T08:39:38;100047.75;;;24.54;nan
43814;BME280;29669;55.706;37.656;2022-07-29T08:43:07;100061.78;;;24.33;nan
43814;BME280;29669;55.706;37.656;2022-07-29T08:46:37;100060.09;;;24.05;nan
43814;BME280;29669;55.706;37.656;2022-07-29T08:49:57;100070.94;;;24.03;nan
43814;BME280;29669;55.706;37.656;2022-07-29T08:53:18;100048.38;;;24.22;nan
43814;BME280;29669;55.706;37.656;2022-07-29T08:56:39;100054.38;;;24.35;nan
43814;BME280;29669;55.706;37.656;2022-07-29T09:00:04;100055.00;;;24.42;nan
43814;BME280;29669;55.706;37.656;2022-07-29T09:03:34;100054.97;;;24.58;nan
43814;BME280;29669;55.706;37.656;2022-07-29T09:07:00;100056.78;;;24.74;nan
43814;BME280;29669;55.706;37.656;2022-07-29T09:10:25;100056.03;;;24.79;nan
43814;BME280;29669;55.706;37.656;2022-07-29T09:13:49;100047.03;;;24.80;nan
43814;BME280;29669;55.706;37.656;2022-07-29T09:17:10;100049.41;;;24.81;nan
43814;BME280;29669;55.706;37.656;2022-07-29T09:20:51;100047.56;;;25.03;nan
43814;BME280;29669;55.706;37.656;2022-07-29T09:28:08;100053.13;;;25.92;nan
43814;BME280;29669;55.706;37.656;2022-07-29T09:31:39;100043.03;;;25.94;nan
43814;BME280;29669;55.706;37.656;2022-07-29T09:35:21;100045.25;;;25.70;nan
43814;BME280;29669;55.706;37.656;2022-07-29T09:38:57;100053.63;;;25.52;nan
43814;BME280;29669;55.706;37.656;2022-07-29T09:42:28;100064.09;;;25.10;nan
43814;BME280;29669;55.706;37.656;2022-07-29T09:45:51;100063.19;;;25.00;nan
43814;BME280;29669;55.706;37.656;2022-07-29T09:49:17;100065.44;;;24.86;nan
43814;BME280;29669;55.706;37.656;2022-07-29T09:52:46;100054.44;;;24.78;nan
43814;BME280;29669;55.706;37.656;2022-07-29T09:56:06;100066.13;;;24.77;nan
43814;BME280;29669;55.706;37.656;2022-07-29T09:59:29;100065.78;;;24.95;nan
43814;BME280;29669;55.706;37.656;2022-07-29T10:03:10;100058.66;;;25.27;nan
43814;BME280;29669;55.706;37.656;2022-07-29T10:06:33;100068.06;;;25.61;nan
43814;BME280;29669;55.706;37.656;2022-07-29T10:09:57;100063.81;;;25.97;nan
43814;BME280;29669;55.706;37.656;2022-07-29T10:13:20;100060.75;;;25.78;nan
43814;BME280;29669;55.706;37.656;2022-07-29T10:16:51;100067.78;;;25.36;nan
43814;BME280;29669;55.706;37.656;2022-07-29T10:20:17;100064.13;;;25.15;nan
43814;BME280;29669;55.706;37.656;2022-07-29T10:23:42;100058.97;;;25.04;nan
43814;BME280;29669;55.706;37.656;2022-07-29T10:27:08;100053.63;;;25.26;nan
43814;BME280;29669;55.706;37.656;2022-07-29T10:30:33;100049.16;;;25.58;nan
43814;BME280;29669;55.706;37.656;2022-07-29T10:34:11;100049.00;;;25.74;nan
43814;BME280;29669;55.706;37.656;2022-07-29T10:45:05;100054.50;;;25.94;nan
43814;BME280;29669;55.706;37.656;2022-07-29T10:48:27;100052.38;;;25.96;nan
43814;BME280;29669;55.706;37.656;2022-07-29T10:52:08;100047.13;;;26.06;nan
43814;BME280;29669;55.706;37.656;2022-07-29T10:55:39;100051.78;;;25.89;nan
43814;BME280;29669;55.706;37.656;2022-07-29T11:02:43;100055.72;;;25.82;nan
43814;BME280;29669;55.706;37.656;2022-07-29T11:06:19;100059.69;;;25.48;nan
43814;BME280;29669;55.706;37.656;2022-07-29T11:09:45;100061.00;;;25.18;nan
43814;BME280;29669;55.706;37.656;2022-07-29T11:17:06;100068.97;;;25.18;nan
43814;BME280;29669;55.706;37.656;2022-07-29T11:20:39;100054.63;;;25.19;nan
43814;BME280;29669;55.706;37.656;2022-07-29T11:24:14;100062.28;;;25.16;nan
43814;BME280;29669;55.706;37.656;2022-07-29T11:27:44;100061.03;;;25.24;nan
43814;BME280;29669;55.706;37.656;2022-07-29T11:31:07;100066.19;;;25.35;nan
43814;BME280;29669;55.706;37.656;2022-07-29T11:34:33;100057.25;;;25.41;nan
43814;BME280;29669;55.706;37.656;2022-07-29T11:38:27;100060.16;;;25.40;nan
43814;BME280;29669;55.706;37.656;2022-07-29T11:41:40;100060.38;;;25.38;nan
43814;BME280;29669;55.706;37.656;2022-07-29T11:48:45;100061.97;;;26.02;nan
43814;BME280;29669;55.706;37.656;2022-07-29T11:52:00;100064.91;;;26.48;nan
43814;BME280;29669;55.706;37.656;2022-07-29T11:55:24;100071.78;;;26.85;nan
43814;BME280;29669;55.706;37.656;2022-07-29T11:59:03;100067.84;;;27.08;nan
43814;BME280;29669;55.706;37.656;2022-07-29T12:02:43;100063.06;;;27.20;nan
43814;BME280;29669;55.706;37.656;2022-07-29T12:06:13;100056.72;;;27.36;nan
43814;BME280;29669;55.706;37.656;2022-07-29T12:09:38;100056.19;;;27.34;nan
43814;BME280;29669;55.706;37.656;2022-07-29T12:13:07;100045.47;;;27.09;nan
43814;BME280;29669;55.706;37.656;2022-07-29T12:16:43;100046.78;;;26.96;nan
43814;BME280;29669;55.706;37.656;2022-07-29T12:20:05;100044.41;;;27.10;nan
43814;BME280;29669;55.706;37.656;2022-07-29T12:23:26;100042.28;;;27.27;nan
43814;BME280;29669;55.706;37.656;2022-07-29T12:26:51;100040.47;;;27.33;nan
43814;BME280;29669;55.706;37.656;2022-07-29T12:30:15;100036.94;;;27.27;nan
43814;BME280;29669;55.706;37.656;2022-07-29T12:33:35;100043.31;;;27.01;nan
43814;BME280;29669;55.706;37.656;2022-07-29T12:36:57;100040.59;;;26.86;nan
43814;BME280;29669;55.706;37.656;2022-07-29T12:40:18;100043.34;;;27.11;nan
43814;BME280;29669;55.706;37.656;2022-07-29T12:43:54;100037.25;;;27.41;nan
43814;BME280;29669;55.706;37.656;2022-07-29T12:47:16;100040.47;;;27.38;nan
43814;BME280;29669;55.706;37.656;2022-07-29T12:51:12;100039.66;;;27.32;nan
43814;BME280;29669;55.706;37.656;2022-07-29T12:54:36;100029.63;;;28.63;nan
43814;BME280;29669;55.706;37.656;2022-07-29T12:58:07;100046.25;;;30.95;nan
43814;BME280;29669;55.706;37.656;2022-07-29T13:01:36;100035.91;;;30.88;nan
43814;BME280;29669;55.706;37.656;2022-07-29T13:05:01;100040.44;;;29.64;nan
43814;BME280;29669;55.706;37.656;2022-07-29T13:08:25;100048.03;;;28.65;nan
43814;BME280;29669;55.706;37.656;2022-07-29T13:15:14;100047.41;;;27.59;nan
43814;BME280;29669;55.706;37.656;2022-07-29T13:18:33;100036.41;;;27.10;nan
43814;BME280;29669;55.706;37.656;2022-07-29T13:21:55;100056.72;;;28.02;nan
43814;BME280;29669;55.706;37.656;2022-07-29T13:25:11;100040.00;;;30.81;nan
43814;BME280;29669;55.706;37.656;2022-07-29T13:28:34;100026.25;;;32.84;nan
43814;BME280;29669;55.706;37.656;2022-07-29T13:31:56;100027.13;;;34.51;nan
43814;BME280;29669;55.706;37.656;2022-07-29T13:35:19;100032.16;;;35.98;nan
43814;BME280;29669;55.706;37.656;2022-07-29T13:38:47;100029.59;;;37.30;nan
43814;BME280;29669;55.706;37.656;2022-07-29T13:42:11;100025.56;;;38.53;nan
43814;BME280;29669;55.706;37.656;2022-07-29T13:45:31;100029.22;;;38.33;nan
43814;BME280;29669;55.706;37.656;2022-07-29T13:48:57;100025.78;;;38.48;nan
43814;BME280;29669;55.706;37.656;2022-07-29T13:52:19;100036.72;;;36.06;nan
43814;BME280;29669;55.706;37.656;2022-07-29T13:55:40;100030.66;;;33.82;nan
43814;BME280;29669;55.706;37.656;2022-07-29T13:59:00;100030.88;;;32.02;nan
43814;BME280;29669;55.706;37.656;2022-07-29T14:02:22;100041.19;;;30.51;nan
43814;BME280;29669;55.706;37.656;2022-07-29T14:05:43;100046.31;;;31.78;nan
43814;BME280;29669;55.706;37.656;2022-07-29T14:08:56;100031.66;;;33.64;nan
43814;BME280;29669;55.706;37.656;2022-07-29T14:12:19;100022.44;;;33.87;nan
43814;BME280;29669;55.706;37.656;2022-07-29T14:15:41;100020.75;;;36.22;nan
43814;BME280;29669;55.706;37.656;2022-07-29T14:19:02;100018.09;;;37.78;nan
43814;BME280;29669;55.706;37.656;2022-07-29T14:22:22;100012.22;;;38.48;nan
43814;BME280;29669;55.706;37.656;2022-07-29T14:25:48;100016.97;;;39.15;nan
43814;BME280;29669;55.706;37.656;2022-07-29T14:29:08;100016.72;;;38.81;nan
43814;BME280;29669;55.706;37.656;2022-07-29T14:32:30;100014.03;;;37.84;nan
43814;BME280;29669;55.706;37.656;2022-07-29T14:35:51;100012.09;;;39.09;nan
43814;BME280;29669;55.706;37.656;2022-07-29T14:39:12;100004.97;;;39.32;nan
43814;BME280;29669;55.706;37.656;2022-07-29T14:42:33;100007.03;;;38.68;nan
43814;BME280;29669;55.706;37.656;2022-07-29T14:45:54;100004.31;;;35.43;nan
43814;BME280;29669;55.706;37.656;2022-07-29T14:49:18;100002.53;;;34.44;nan
43814;BME280;29669;55.706;37.656;2022-07-29T14:52:39;100000.41;;;34.24;nan
43814;BME280;29669;55.706;37.656;2022-07-29T14:55:59;100005.38;;;31.86;nan
43814;BME280;29669;55.706;37.656;2022-07-29T14:59:41;100011.09;;;29.88;nan
43814;BME280;29669;55.706;37.656;2022-07-29T15:03:02;100010.94;;;29.02;nan
43814;BME280;29669;55.706;37.656;2022-07-29T15:06:30;100012.72;;;29.84;nan
43814;BME280;29669;55.706;37.656;2022-07-29T15:09:54;100000.78;;;29.72;nan
43814;BME280;29669;55.706;37.656;2022-07-29T15:13:15;100010.63;;;30.52;nan
43814;BME280;29669;55.706;37.656;2022-07-29T15:16:37;100000.78;;;32.81;nan
43814;BME280;29669;55.706;37.656;2022-07-29T15:19:59;100003.31;;;32.37;nan
43814;BME280;29669;55.706;37.656;2022-07-29T15:23:20;100005.41;;;31.03;nan
43814;BME280;29669;55.706;37.656;2022-07-29T15:26:41;100010.94;;;33.73;nan
43814;BME280;29669;55.706;37.656;2022-07-29T15:30:03;100003.13;;;34.41;nan
43814;BME280;29669;55.706;37.656;2022-07-29T15:33:39;100006.94;;;31.73;nan
43814;BME280;29669;55.706;37.656;2022-07-29T15:37:06;100011.09;;;29.26;nan
43814;BME280;29669;55.706;37.656;2022-07-29T15:40:29;100018.28;;;27.92;nan
43814;BME280;29669;55.706;37.656;2022-07-29T15:43:52;100018.84;;;27.19;nan
43814;BME280;29669;55.706;37.656;2022-07-29T15:47:14;100016.63;;;26.76;nan
43814;BME280;29669;55.706;37.656;2022-07-29T15:50:35;100014.38;;;26.53;nan
43814;BME280;29669;55.706;37.656;2022-07-29T15:53:56;100021.78;;;26.41;nan
43814;BME280;29669;55.706;37.656;2022-07-29T15:57:17;100024.28;;;26.67;nan
43814;BME280;29669;55.706;37.656;2022-07-29T16:00:38;100039.50;;;28.58;nan
43814;BME280;29669;55.706;37.656;2022-07-29T16:03:59;100047.31;;;30.56;nan
43814;BME280;29669;55.706;37.656;2022-07-29T16:07:20;100043.88;;;31.63;nan
43814;BME280;29669;55.706;37.656;2022-07-29T16:10:41;100054.09;;;31.79;nan
43814;BME280;29669;55.706;37.656;2022-07-29T16:14:02;100051.63;;;30.29;nan
43814;BME280;29669;55.706;37.656;2022-07-29T16:17:24;100045.13;;;29.83;nan
43814;BME280;29669;55.706;37.656;2022-07-29T16:20:45;100064.38;;;29.12;nan
43814;BME280;29669;55.706;37.656;2022-07-29T16:24:06;100058.31;;;30.03;nan
43814;BME280;29669;55.706;37.656;2022-07-29T16:27:28;100064.19;;;30.33;nan
43814;BME280;29669;55.706;37.656;2022-07-29T16:30:49;100081.59;;;30.31;nan
43814;BME280;29669;55.706;37.656;2022-07-29T16:34:10;100088.69;;;28.37;nan
43814;BME280;29669;55.706;37.656;2022-07-29T16:37:31;100085.47;;;26.57;nan
43814;BME280;29669;55.706;37.656;2022-07-29T16:40:52;100082.88;;;25.52;nan
43814;BME280;29669;55.706;37.656;2022-07-29T16:44:14;100074.19;;;24.87;nan
43814;BME280;29669;55.706;37.656;2022-07-29T16:47:37;100085.47;;;24.56;nan
43814;BME280;29669;55.706;37.656;2022-07-29T16:51:02;100080.09;;;24.34;nan
43814;BME280;29669;55.706;37.656;2022-07-29T16:54:23;100077.69;;;24.11;nan
43814;BME280;29669;55.706;37.656;2022-07-29T16:57:44;100075.09;;;23.99;nan
43814;BME280;29669;55.706;37.656;2022-07-29T17:01:08;100082.56;;;23.86;nan
43814;BME280;29669;55.706;37.656;2022-07-29T17:04:30;100082.69;;;23.63;nan
43814;BME280;29669;55.706;37.656;2022-07-29T17:07:51;100090.06;;;23.44;nan
43814;BME280;29669;55.706;37.656;2022-07-29T17:11:18;100087.13;;;23.29;nan
43814;BME280;29669;55.706;37.656;2022-07-29T17:14:59;100084.84;;;23.21;nan
43814;BME280;29669;55.706;37.656;2022-07-29T17:18:13;100100.41;;;23.17;nan
43814;BME280;29669;55.706;37.656;2022-07-29T17:21:34;100086.06;;;23.02;nan
43814;BME280;29669;55.706;37.656;2022-07-29T17:24:58;100095.44;;;22.93;nan
43814;BME280;29669;55.706;37.656;2022-07-29T17:28:19;100096.28;;;22.82;nan
43814;BME280;29669;55.706;37.656;2022-07-29T17:31:40;100089.75;;;22.73;nan
43814;BME280;29669;55.706;37.656;2022-07-29T17:35:01;100090.00;;;22.60;nan
43814;BME280;29669;55.706;37.656;2022-07-29T17:38:42;100088.00;;;22.43;nan
43814;BME280;29669;55.706;37.656;2022-07-29T17:42:03;100087.69;;;22.28;nan
43814;BME280;29669;55.706;37.656;2022-07-29T17:45:24;100098.72;;;22.14;nan
43814;BME280;29669;55.706;37.656;2022-07-29T17:48:56;100101.81;;;21.99;nan
43814;BME280;29669;55.706;37.656;2022-07-29T17:52:17;100097.44;;;21.82;nan
43814;BME280;29669;55.706;37.656;2022-07-29T17:55:38;100100.59;;;21.72;nan
43814;BME280;29669;55.706;37.656;2022-07-29T17:59:01;100112.53;;;21.63;nan
43814;BME280;29669;55.706;37.656;2022-07-29T18:02:26;100112.63;;;21.57;nan
43814;BME280;29669;55.706;37.656;2022-07-29T18:05:47;100110.88;;;21.50;nan
43814;BME280;29669;55.706;37.656;2022-07-29T18:09:10;100110.50;;;21.47;nan
43814;BME280;29669;55.706;37.656;2022-07-29T18:12:31;100116.03;;;21.45;nan
43814;BME280;29669;55.706;37.656;2022-07-29T18:15:47;100108.09;;;21.45;nan
43814;BME280;29669;55.706;37.656;2022-07-29T18:19:09;100115.56;;;21.48;nan
43814;BME280;29669;55.706;37.656;2022-07-29T18:22:30;100116.03;;;21.45;nan
43814;BME280;29669;55.706;37.656;2022-07-29T18:25:52;100116.69;;;21.41;nan
43814;BME280;29669;55.706;37.656;2022-07-29T18:29:13;100124.38;;;21.31;nan
43814;BME280;29669;55.706;37.656;2022-07-29T18:32:34;100122.91;;;21.17;nan
43814;BME280;29669;55.706;37.656;2022-07-29T18:36:20;100132.22;;;21.01;nan
43814;BME280;29669;55.706;37.656;2022-07-29T18:39:34;100140.28;;;20.88;nan
43814;BME280;29669;55.706;37.656;2022-07-29T18:42:57;100135.97;;;20.76;nan
43814;BME280;29669;55.706;37.656;2022-07-29T18:46:19;100139.25;;;20.71;nan